createdAt,value
2018-03-11T00:03:06.597Z,5.17
2018-03-11T00:05:35.551Z,10.33
2018-03-11T00:08:04.916Z,4.60
2018-03-11T00:10:33.276Z,4.57
2018-03-11T00:13:02.178Z,11.10
2018-03-11T00:15:30.604Z,5.53
2018-03-11T00:17:58.991Z,4.70
2018-03-11T00:20:27.316Z,6.20
2018-03-11T00:22:55.668Z,6.10
2018-03-11T00:25:24.059Z,10.37
2018-03-11T00:27:52.437Z,5.70
2018-03-11T00:30:20.883Z,4.10
2018-03-11T00:32:50.036Z,4.13
2018-03-11T00:35:18.732Z,8.17
2018-03-11T00:37:47.926Z,4.37
2018-03-11T00:40:18.541Z,6.30
2018-03-11T00:42:47.057Z,6.50
2018-03-11T00:45:15.476Z,6.80
2018-03-11T00:47:44.133Z,9.80
2018-03-11T00:50:12.459Z,6.90
2018-03-11T00:52:42.417Z,4.60
2018-03-11T00:55:10.885Z,5.53
2018-03-11T00:57:39.325Z,7.93
2018-03-11T01:00:07.663Z,3.73
2018-03-11T01:02:36.020Z,4.50
2018-03-11T01:05:04.401Z,5.73
2018-03-11T01:07:33.557Z,4.50
2018-03-11T01:10:01.994Z,4.50
2018-03-11T01:12:30.328Z,8.73
2018-03-11T01:14:59.124Z,6.03
2018-03-11T01:17:27.545Z,7.33
2018-03-11T01:19:56.132Z,6.73
2018-03-11T01:22:24.642Z,4.47
2018-03-11T01:24:53.001Z,3.90
2018-03-11T01:27:21.930Z,10.20
2018-03-11T01:29:50.521Z,4.60
2018-03-11T01:32:18.836Z,9.03
2018-03-11T01:34:47.147Z,3.77
2018-03-11T01:37:15.486Z,3.23
2018-03-11T01:39:43.842Z,5.50
2018-03-11T01:42:12.573Z,3.10
2018-03-11T01:44:40.944Z,4.80
2018-03-11T01:47:09.352Z,3.60
2018-03-11T01:49:37.680Z,3.77
2018-03-11T01:52:06.060Z,6.60
2018-03-11T01:54:34.501Z,8.53
2018-03-11T01:57:15.360Z,4.60
2018-03-11T01:59:43.819Z,2.57
2018-03-11T02:02:12.190Z,7.03
2018-03-11T02:04:40.593Z,3.10
2018-03-11T02:07:08.923Z,4.37
2018-03-11T02:09:37.280Z,4.40
2018-03-11T02:12:05.612Z,2.40
2018-03-11T02:14:34.284Z,5.13
2018-03-11T02:17:02.686Z,4.43
2018-03-11T02:19:31.232Z,3.97
2018-03-11T02:21:59.679Z,2.93
2018-03-11T02:24:27.993Z,8.17
2018-03-11T02:26:56.355Z,4.83
2018-03-11T02:29:24.688Z,6.20
2018-03-11T02:31:53.090Z,9.53
2018-03-11T02:34:21.479Z,10.10
2018-03-11T02:36:49.827Z,3.07
2018-03-11T02:39:18.215Z,4.60
2018-03-11T02:41:46.526Z,5.60
2018-03-11T02:44:14.855Z,4.27
2018-03-11T02:46:43.243Z,3.87
2018-03-11T02:49:11.911Z,4.90
2018-03-11T02:51:40.220Z,4.17
2018-03-11T02:54:08.592Z,3.20
2018-03-11T02:56:36.908Z,2.47
2018-03-11T02:59:05.669Z,14.53
2018-03-11T03:01:33.974Z,6.03
2018-03-11T03:04:02.480Z,8.90
2018-03-11T03:06:30.818Z,6.97
2018-03-11T03:08:59.210Z,3.70
2018-03-11T03:11:27.533Z,5.67
2018-03-11T03:13:55.875Z,7.70
2018-03-11T03:16:24.185Z,2.90
2018-03-11T03:18:52.535Z,3.33
2018-03-11T03:21:21.828Z,3.27
2018-03-11T03:23:50.125Z,4.37
2018-03-11T03:26:18.532Z,2.43
2018-03-11T03:28:46.908Z,3.70
2018-03-11T03:31:15.241Z,3.53
2018-03-11T03:33:43.538Z,3.37
2018-03-11T03:36:12.796Z,2.20
2018-03-11T03:38:41.138Z,3.33
2018-03-11T03:41:09.516Z,3.83
2018-03-11T03:43:38.173Z,3.83
2018-03-11T03:46:06.461Z,4.10
2018-03-11T03:48:34.800Z,3.00
2018-03-11T03:51:03.142Z,1.70
2018-03-11T03:53:31.598Z,8.73
2018-03-11T03:55:59.936Z,6.00
2018-03-11T03:58:28.248Z,5.47
2018-03-11T04:00:58.224Z,4.60
2018-03-11T04:03:26.526Z,2.80
2018-03-11T04:05:55.160Z,5.53
2018-03-11T04:08:23.510Z,6.93
2018-03-11T04:10:51.835Z,1.60
2018-03-11T04:13:20.151Z,8.50
2018-03-11T04:15:48.487Z,11.80
2018-03-11T04:18:16.826Z,7.47
2018-03-11T04:20:45.602Z,13.37
2018-03-11T04:23:13.893Z,4.60
2018-03-11T04:25:42.226Z,2.70
2018-03-11T04:28:10.537Z,3.93
2018-03-11T04:30:38.852Z,8.63
2018-03-11T04:33:08.116Z,5.57
2018-03-11T04:35:36.423Z,5.60
2018-03-11T04:38:04.770Z,6.97
2018-03-11T04:40:33.139Z,2.13
2018-03-11T04:43:01.491Z,4.20
2018-03-11T04:45:29.902Z,3.30
2018-03-11T04:47:58.201Z,3.53
2018-03-11T04:50:26.520Z,2.57
2018-03-11T04:52:54.828Z,12.70
2018-03-11T04:55:23.156Z,3.17
2018-03-11T04:57:51.477Z,9.20
2018-03-11T05:00:19.798Z,2.20
2018-03-11T05:02:48.106Z,4.67
2018-03-11T05:05:16.437Z,6.43
2018-03-11T05:07:44.756Z,1.70
2018-03-11T05:10:13.076Z,1.97
2018-03-11T05:12:41.399Z,3.07
2018-03-11T05:15:09.755Z,2.70
2018-03-11T05:17:38.092Z,2.30
2018-03-11T05:20:06.431Z,4.00
2018-03-11T05:22:35.000Z,1.50
2018-03-11T05:25:03.332Z,4.70
2018-03-11T05:27:31.664Z,5.40
2018-03-11T05:30:00.230Z,1.80
2018-03-11T05:32:28.577Z,1.80
2018-03-11T05:34:56.879Z,3.40
2018-03-11T05:37:25.200Z,2.10
2018-03-11T05:39:53.527Z,2.80
2018-03-11T05:42:21.907Z,3.60
2018-03-11T05:44:50.202Z,2.93
2018-03-11T05:47:18.629Z,3.30
2018-03-11T05:49:46.943Z,2.80
2018-03-11T05:52:15.235Z,4.40
2018-03-11T05:54:43.552Z,3.60
2018-03-11T05:57:12.123Z,3.20
2018-03-11T05:59:40.463Z,8.53
2018-03-11T06:02:08.800Z,14.23
2018-03-11T06:04:37.219Z,2.90
2018-03-11T06:07:05.613Z,9.90
2018-03-11T06:09:34.057Z,3.43
2018-03-11T06:12:02.527Z,3.83
2018-03-11T06:14:31.008Z,4.20
2018-03-11T06:16:59.344Z,2.70
2018-03-11T06:19:27.691Z,1.67
2018-03-11T06:21:55.994Z,1.20
2018-03-11T06:24:24.348Z,1.93
2018-03-11T06:26:52.658Z,11.20
2018-03-11T06:29:21.003Z,7.13
2018-03-11T06:31:49.599Z,6.20
2018-03-11T06:34:17.953Z,3.73
2018-03-11T06:36:46.280Z,2.77
2018-03-11T06:39:14.960Z,1.73
2018-03-11T06:41:43.319Z,2.07
2018-03-11T06:44:11.763Z,11.60
2018-03-11T06:46:40.079Z,4.80
2018-03-11T06:49:08.431Z,2.43
2018-03-11T06:51:36.735Z,8.30
2018-03-11T06:54:05.075Z,4.40
2018-03-11T06:56:33.555Z,2.00
2018-03-11T06:59:01.963Z,7.03
2018-03-11T07:01:30.294Z,2.70
2018-03-11T07:03:58.722Z,7.17
2018-03-11T07:06:27.057Z,8.03
2018-03-11T07:08:56.322Z,4.77
2018-03-11T07:11:24.772Z,6.50
2018-03-11T07:13:53.154Z,1.60
2018-03-11T07:16:21.533Z,4.47
2018-03-11T07:18:52.433Z,7.30
2018-03-11T07:21:20.800Z,8.23
2018-03-11T07:23:49.141Z,2.70
2018-03-11T07:26:17.599Z,6.13
2018-03-11T07:28:46.016Z,4.37
2018-03-11T07:31:15.030Z,2.00
2018-03-11T07:33:43.891Z,12.97
2018-03-11T07:36:12.222Z,6.60
2018-03-11T07:38:40.554Z,4.53
2018-03-11T07:41:09.086Z,3.63
2018-03-11T07:43:37.423Z,2.90
2018-03-11T07:46:05.754Z,8.60
2018-03-11T07:48:34.193Z,5.47
2018-03-11T07:51:02.573Z,2.90
2018-03-11T07:53:31.111Z,4.70
2018-03-11T07:55:59.415Z,3.07
2018-03-11T07:58:27.757Z,5.97
2018-03-11T08:00:56.184Z,14.60
2018-03-11T08:03:24.558Z,8.27
2018-03-11T08:05:54.867Z,8.23
2018-03-11T08:08:23.188Z,9.70
2018-03-11T08:10:52.387Z,6.03
2018-03-11T08:13:20.735Z,22.67
2018-03-11T08:15:49.103Z,12.07
2018-03-11T08:18:17.427Z,1.40
2018-03-11T08:20:45.742Z,6.50
2018-03-11T08:23:14.061Z,17.87
2018-03-11T08:25:42.406Z,14.97
2018-03-11T08:28:10.733Z,3.70
2018-03-11T08:30:39.060Z,8.97
2018-03-11T08:33:07.421Z,14.40
2018-03-11T08:35:35.769Z,18.23
2018-03-11T08:38:04.187Z,11.77
2018-03-11T08:40:32.531Z,17.53
2018-03-11T08:43:00.910Z,4.37
2018-03-11T08:45:29.214Z,17.67
2018-03-11T08:47:57.541Z,15.70
2018-03-11T08:50:26.037Z,4.13
2018-03-11T08:52:54.389Z,17.83
2018-03-11T08:55:22.727Z,18.53
2018-03-11T08:57:51.055Z,16.60
2018-03-11T09:00:19.473Z,25.17
2018-03-11T09:02:47.778Z,5.90
2018-03-11T09:05:16.152Z,4.10
2018-03-11T09:07:44.462Z,8.90
2018-03-11T09:10:12.801Z,12.40
2018-03-11T09:12:41.129Z,10.63
2018-03-11T09:15:09.435Z,4.23
2018-03-11T09:17:37.769Z,10.60
2018-03-11T09:20:06.073Z,11.13
2018-03-11T09:22:34.493Z,4.67
2018-03-11T09:25:02.828Z,12.70
2018-03-11T09:27:31.973Z,18.43
2018-03-11T09:30:00.706Z,5.90
2018-03-11T09:32:29.087Z,20.80
2018-03-11T09:34:57.468Z,25.27
2018-03-11T09:37:25.796Z,13.43
2018-03-11T09:39:54.360Z,12.60
2018-03-11T09:42:22.692Z,14.33
2018-03-11T09:44:51.035Z,7.57
2018-03-11T09:47:19.366Z,7.40
2018-03-11T09:49:47.738Z,10.23
2018-03-11T09:52:16.137Z,9.50
2018-03-11T09:54:44.488Z,6.53
2018-03-11T09:57:12.859Z,6.40
2018-03-11T09:59:41.181Z,13.83
2018-03-11T10:02:09.507Z,4.10
2018-03-11T10:04:37.824Z,5.27
2018-03-11T10:07:06.155Z,7.67
2018-03-11T10:09:34.479Z,5.30
2018-03-11T10:12:02.982Z,4.93
2018-03-11T10:14:31.408Z,6.13
2018-03-11T10:16:59.732Z,5.40
2018-03-11T10:19:28.064Z,3.80
2018-03-11T10:21:56.634Z,12.23
2018-03-11T10:24:25.357Z,10.70
2018-03-11T10:26:53.690Z,3.20
2018-03-11T10:29:22.220Z,11.33
2018-03-11T10:31:50.560Z,7.13
2018-03-11T10:34:19.030Z,6.27
2018-03-11T10:36:47.754Z,12.53
2018-03-11T10:39:16.177Z,3.10
2018-03-11T10:41:44.566Z,19.63
2018-03-11T10:44:12.897Z,5.80
2018-03-11T10:46:41.215Z,6.00
2018-03-11T10:49:09.555Z,3.20
2018-03-11T10:51:37.834Z,9.50
2018-03-11T10:54:06.168Z,2.13
2018-03-11T10:56:34.516Z,7.50
2018-03-11T10:59:02.848Z,8.17
2018-03-11T11:01:36.657Z,7.40
2018-03-11T11:04:14.699Z,7.67
2018-03-11T11:06:43.026Z,4.20
2018-03-11T11:09:11.346Z,7.30
2018-03-11T11:11:39.651Z,12.13
2018-03-11T11:14:07.991Z,8.33
2018-03-11T11:16:36.320Z,3.87
2018-03-11T11:19:04.664Z,15.03
2018-03-11T11:21:33.030Z,8.93
2018-03-11T11:24:01.349Z,5.43
2018-03-11T11:26:29.786Z,3.57
2018-03-11T11:28:58.123Z,9.30
2018-03-11T11:31:26.467Z,9.87
2018-03-11T11:33:54.798Z,4.23
2018-03-11T11:36:23.140Z,8.17
2018-03-11T11:38:51.471Z,5.57
2018-03-11T11:41:19.828Z,5.20
2018-03-11T11:43:48.203Z,3.50
2018-03-11T11:46:16.512Z,2.83
2018-03-11T11:48:44.843Z,11.50
2018-03-11T11:51:13.144Z,2.60
2018-03-11T11:53:41.469Z,2.40
2018-03-11T11:56:09.785Z,2.57
2018-03-11T11:58:38.160Z,2.27
2018-03-11T12:01:06.493Z,6.40
2018-03-11T12:03:34.816Z,4.80
2018-03-11T12:06:03.183Z,14.93
2018-03-11T12:08:31.504Z,6.30
2018-03-11T12:10:59.828Z,6.93
2018-03-11T12:13:28.162Z,6.67
2018-03-11T12:15:56.492Z,4.90
2018-03-11T12:18:24.831Z,11.63
2018-03-11T12:20:53.171Z,3.40
2018-03-11T12:23:21.482Z,7.53
2018-03-11T12:25:50.582Z,11.33
2018-03-11T12:28:18.888Z,4.83
2018-03-11T12:30:47.322Z,3.07
2018-03-11T12:33:15.639Z,3.70
2018-03-11T12:35:43.964Z,6.80
2018-03-11T12:38:12.287Z,2.30
2018-03-11T12:40:40.615Z,13.10
2018-03-11T12:43:08.928Z,8.37
2018-03-11T12:45:37.274Z,6.20
2018-03-11T12:48:05.588Z,4.60
2018-03-11T12:50:33.896Z,7.03
2018-03-11T12:53:02.236Z,4.17
2018-03-11T12:55:30.583Z,4.70
2018-03-11T12:57:58.912Z,4.40
2018-03-11T13:00:27.357Z,6.87
2018-03-11T13:02:55.671Z,8.77
2018-03-11T13:05:24.018Z,6.20
2018-03-11T13:07:52.338Z,7.80
2018-03-11T13:10:20.653Z,4.53
2018-03-11T13:12:49.053Z,13.93
2018-03-11T13:15:17.391Z,10.80
2018-03-11T13:17:45.712Z,12.60
2018-03-11T13:20:25.693Z,3.60
2018-03-11T13:22:54.009Z,8.47
2018-03-11T13:25:22.342Z,10.43
2018-03-11T13:28:02.480Z,3.43
2018-03-11T13:30:30.866Z,7.23
2018-03-11T13:33:10.979Z,14.23
2018-03-11T13:35:39.288Z,19.70
2018-03-11T13:38:19.285Z,7.27
2018-03-11T13:40:47.625Z,5.77
2018-03-11T13:43:15.994Z,12.50
2018-03-11T13:45:55.944Z,7.60
2018-03-11T13:48:24.293Z,5.30
2018-03-11T13:50:52.649Z,6.83
2018-03-11T13:53:32.752Z,21.17
2018-03-11T13:56:01.060Z,8.93
2018-03-11T13:58:41.152Z,3.40
2018-03-11T14:01:09.463Z,7.57
2018-03-11T14:03:37.808Z,10.17
2018-03-11T14:06:06.155Z,5.20
2018-03-11T14:08:34.508Z,13.17
2018-03-11T14:11:02.913Z,8.00
2018-03-11T14:13:31.253Z,10.53
2018-03-11T14:15:59.617Z,7.00
2018-03-11T14:18:27.932Z,10.00
2018-03-11T14:20:56.277Z,18.40
2018-03-11T14:23:24.600Z,17.90
2018-03-11T14:25:52.916Z,4.27
2018-03-11T14:28:21.496Z,3.90
2018-03-11T14:30:49.840Z,4.77
2018-03-11T14:33:18.504Z,4.60
2018-03-11T14:35:46.812Z,6.80
2018-03-11T14:38:15.256Z,11.17
2018-03-11T14:40:43.773Z,9.27
2018-03-11T14:43:12.124Z,7.90
2018-03-11T14:45:40.452Z,6.53
2018-03-11T14:48:08.788Z,22.50
2018-03-11T14:50:37.091Z,12.30
2018-03-11T14:53:05.438Z,14.33
2018-03-11T14:55:33.813Z,8.87
2018-03-11T14:58:02.129Z,10.87
2018-03-11T15:00:30.875Z,8.30
2018-03-11T15:02:59.188Z,7.47
2018-03-11T15:05:27.524Z,6.47
2018-03-11T15:07:55.838Z,4.00
2018-03-11T15:10:24.142Z,8.43
2018-03-11T15:12:52.473Z,6.57
2018-03-11T15:15:20.813Z,3.47
2018-03-11T15:17:49.135Z,3.80
2018-03-11T15:20:17.444Z,19.93
2018-03-11T15:22:45.764Z,4.50
2018-03-11T15:25:14.084Z,10.80
2018-03-11T15:27:42.389Z,6.03
2018-03-11T15:30:10.772Z,5.23
2018-03-11T15:32:39.099Z,9.27
2018-03-11T15:35:07.466Z,4.10
2018-03-11T15:37:35.819Z,9.13
2018-03-11T15:40:04.275Z,6.47
2018-03-11T15:42:32.811Z,11.90
2018-03-11T15:45:01.122Z,14.17
2018-03-11T15:47:29.451Z,11.67
2018-03-11T15:49:57.804Z,11.50
2018-03-11T15:52:26.122Z,9.43
2018-03-11T15:54:54.447Z,11.60
2018-03-11T15:57:22.809Z,5.77
2018-03-11T15:59:51.123Z,18.77
2018-03-11T16:02:19.467Z,5.90
2018-03-11T16:04:47.811Z,5.67
2018-03-11T16:07:16.116Z,6.33
2018-03-11T16:09:44.439Z,10.40
2018-03-11T16:12:12.760Z,11.50
2018-03-11T16:14:41.117Z,11.33
2018-03-11T16:17:10.256Z,8.10
2018-03-11T16:19:38.584Z,8.37
2018-03-11T16:22:07.160Z,11.37
2018-03-11T16:24:39.723Z,13.03
2018-03-11T16:27:03.840Z,11.13
2018-03-11T16:29:32.214Z,6.47
2018-03-11T16:32:00.572Z,15.13
2018-03-11T16:34:28.933Z,16.90
2018-03-11T16:36:57.312Z,21.30
2018-03-11T16:39:25.652Z,10.60
2018-03-11T16:41:53.968Z,14.97
2018-03-11T16:44:22.288Z,8.97
2018-03-11T16:46:51.444Z,8.03
2018-03-11T16:49:20.614Z,11.60
2018-03-11T16:51:48.996Z,8.23
2018-03-11T16:54:17.298Z,18.37
2018-03-11T16:56:45.624Z,15.40
2018-03-11T16:59:13.942Z,16.47
2018-03-11T17:01:42.490Z,18.47
2018-03-11T17:04:10.828Z,13.17
2018-03-11T17:06:39.160Z,14.00
2018-03-11T17:09:07.511Z,14.77
2018-03-11T17:11:35.811Z,14.90
2018-03-11T17:14:04.141Z,15.13
2018-03-11T17:16:32.511Z,14.27
2018-03-11T17:19:01.057Z,20.07
2018-03-11T17:21:29.355Z,14.10
2018-03-11T17:23:57.690Z,16.00
2018-03-11T17:26:26.018Z,11.47
2018-03-11T17:28:54.346Z,15.13
2018-03-11T17:31:23.566Z,18.93
2018-03-11T17:33:52.158Z,35.87
2018-03-11T17:36:20.575Z,21.77
2018-03-11T17:38:49.239Z,23.80
2018-03-11T17:41:17.761Z,20.13
2018-03-11T17:43:46.514Z,25.77
2018-03-11T17:46:14.954Z,19.20
2018-03-11T17:48:43.778Z,21.40
2018-03-11T17:51:12.497Z,16.47
2018-03-11T17:53:40.876Z,28.67
2018-03-11T17:56:10.145Z,20.40
2018-03-11T17:58:38.467Z,21.07
2018-03-11T18:01:06.901Z,23.63
2018-03-11T18:03:35.454Z,23.37
2018-03-11T18:06:03.845Z,19.63
2018-03-11T18:08:32.228Z,22.77
2018-03-11T18:11:01.557Z,18.80
2018-03-11T18:13:31.596Z,20.37
2018-03-11T18:16:01.660Z,18.30
2018-03-11T18:18:30.210Z,19.53
2018-03-11T18:20:58.724Z,18.87
2018-03-11T18:23:27.137Z,24.63
2018-03-11T18:25:55.498Z,26.77
2018-03-11T18:30:56.720Z,23.97
2018-03-11T18:33:25.936Z,17.63
2018-03-11T18:35:54.311Z,17.30
2018-03-11T18:38:22.711Z,14.37
2018-03-11T18:40:51.121Z,17.43
2018-03-11T18:43:19.911Z,23.43
2018-03-11T18:45:48.318Z,15.77
2018-03-11T18:48:16.674Z,28.97
2018-03-11T18:50:44.996Z,22.50
2018-03-11T18:53:13.485Z,17.20
2018-03-11T18:55:41.897Z,17.40
2018-03-11T18:58:10.353Z,21.53
2018-03-11T19:00:38.699Z,17.40
2018-03-11T19:03:07.037Z,19.40
2018-03-11T19:05:35.543Z,15.83
2018-03-11T19:08:04.138Z,17.33
2018-03-11T19:10:34.376Z,15.70
2018-03-11T19:13:02.864Z,16.83
2018-03-11T19:15:31.631Z,18.87
2018-03-11T19:18:02.205Z,17.77
2018-03-11T19:20:30.568Z,16.20
2018-03-11T19:22:59.033Z,15.73
2018-03-11T19:25:27.368Z,18.27
2018-03-11T19:27:55.787Z,17.57
2018-03-11T19:30:24.319Z,18.30
2018-03-11T19:32:52.749Z,18.20
2018-03-11T19:35:21.084Z,18.23
2018-03-11T19:37:49.440Z,16.63
2018-03-11T19:40:17.892Z,22.33
2018-03-11T19:42:46.510Z,14.13
2018-03-11T19:45:15.568Z,15.10
2018-03-11T19:47:44.095Z,18.00
2018-03-11T19:50:12.738Z,18.73
2018-03-11T19:52:41.159Z,17.40
2018-03-11T19:55:11.197Z,15.60
2018-03-11T19:57:39.546Z,18.90
2018-03-11T20:00:10.703Z,17.77
2018-03-11T20:02:39.113Z,18.80
2018-03-11T20:05:11.614Z,15.63
2018-03-11T20:07:39.938Z,16.13
2018-03-11T20:10:08.341Z,19.17
2018-03-11T20:12:36.779Z,18.60
2018-03-11T20:15:05.276Z,16.07
2018-03-11T20:17:33.748Z,14.37
2018-03-11T20:20:02.341Z,18.37
2018-03-11T20:22:30.776Z,15.60
2018-03-11T20:24:59.142Z,15.20
2018-03-11T20:27:27.693Z,15.17
2018-03-11T20:29:56.073Z,16.70
2018-03-11T20:32:24.478Z,13.40
2018-03-11T20:34:53.221Z,18.57
2018-03-11T20:37:21.623Z,16.77
2018-03-11T20:39:49.981Z,18.73
2018-03-11T20:42:18.499Z,16.23
2018-03-11T20:44:47.440Z,26.57
2018-03-11T20:47:15.800Z,20.57
2018-03-11T20:49:44.255Z,18.53
2018-03-11T20:52:12.600Z,19.70
2018-03-11T20:54:41.060Z,21.53
2018-03-11T20:57:09.438Z,19.77
2018-03-11T20:59:38.101Z,20.60
2018-03-11T21:02:06.485Z,15.20
2018-03-11T21:04:39.346Z,14.17
2018-03-11T21:07:07.822Z,16.13
2018-03-11T21:09:36.558Z,20.90
2018-03-11T21:12:05.003Z,18.93
2018-03-11T21:14:33.391Z,16.93
2018-03-11T21:17:01.830Z,17.87
2018-03-11T21:19:30.194Z,20.90
2018-03-11T21:21:58.548Z,19.67
2018-03-11T21:24:26.886Z,19.17
2018-03-11T21:26:55.260Z,22.70
2018-03-11T21:29:23.649Z,17.00
2018-03-11T21:31:52.085Z,17.53
2018-03-11T21:34:20.459Z,23.13
2018-03-11T21:36:48.788Z,19.07
2018-03-11T21:39:17.152Z,19.27
2018-03-11T21:41:45.997Z,18.50
2018-03-11T21:44:14.352Z,17.23
2018-03-11T21:46:42.968Z,19.07
2018-03-11T21:49:11.311Z,17.13
2018-03-11T21:51:40.562Z,18.33
2018-03-11T21:54:11.417Z,19.27
2018-03-11T21:56:39.928Z,23.97
2018-03-11T21:59:08.593Z,17.60
2018-03-11T22:01:36.956Z,16.13
2018-03-11T22:04:05.543Z,16.23
2018-03-11T22:06:33.917Z,22.40
2018-03-11T22:09:02.841Z,16.33
2018-03-11T22:11:31.307Z,14.20
2018-03-11T22:13:59.651Z,13.90
2018-03-11T22:16:28.064Z,17.20
2018-03-11T22:18:56.641Z,19.33
2018-03-11T22:21:25.009Z,12.93
2018-03-11T22:23:53.361Z,14.57
2018-03-11T22:26:21.739Z,16.70
2018-03-11T22:28:50.242Z,17.43
2018-03-11T22:31:18.600Z,17.63
2018-03-11T22:33:47.905Z,17.00
2018-03-11T22:36:16.260Z,19.20
2018-03-11T22:38:44.617Z,18.53
2018-03-11T22:41:13.014Z,20.80
2018-03-11T22:43:41.366Z,17.53
2018-03-11T22:46:09.704Z,14.27
2018-03-11T22:48:38.104Z,15.77
2018-03-11T22:51:06.498Z,17.07
2018-03-11T22:53:34.879Z,15.50
2018-03-11T22:56:03.230Z,19.03
2018-03-11T22:58:31.570Z,16.07
2018-03-11T23:00:59.988Z,15.63
2018-03-11T23:03:28.348Z,19.27
2018-03-11T23:05:56.726Z,18.17
2018-03-11T23:08:25.149Z,18.10
2018-03-11T23:10:53.485Z,21.20
2018-03-11T23:13:21.856Z,17.70
2018-03-11T23:15:50.193Z,15.37
2018-03-11T23:18:18.552Z,19.60
2018-03-11T23:20:46.935Z,17.53
2018-03-11T23:23:15.279Z,18.57
2018-03-11T23:25:43.632Z,22.03
2018-03-11T23:28:11.980Z,16.13
2018-03-11T23:30:40.316Z,17.37
2018-03-11T23:33:08.646Z,28.73
2018-03-11T23:35:36.986Z,21.70
2018-03-11T23:38:05.351Z,21.33
2018-03-11T23:40:33.766Z,16.90
2018-03-11T23:43:02.236Z,19.87
2018-03-11T23:45:30.802Z,19.57
2018-03-11T23:47:59.165Z,21.30
2018-03-11T23:50:27.524Z,21.13
2018-03-11T23:52:55.937Z,20.83
2018-03-11T23:55:24.264Z,17.60
2018-03-11T23:57:52.611Z,20.83
